LFMP Airport Information

Runway Information
Runway 13 Length 4150 ft width 66 ft
Elevation 143 ft Threshold 404 ft Heading 127
Runway 31 Length 4150 ft Width 66 ft
Elevation 131 ft Threshold 1158 ft Heading 307
Runway 15 Length 8202 ft width 148 ft
Elevation 130 ft Threshold 0 ft Heading 148
Runway 33 Length 8202 ft Width 148 ft
Elevation 135 ft Threshold 557 ft Heading 328
Airport Frequencies
Type APP Name PERPIGNAN Frequency 120.75 MHZ
Type ATIS Name ATIS Frequency 127.875 MHZ
Type TWR Name PERPIGNAN Frequency 121.9 MHZ
Airport Navaids
Type VOR-DME Name Perpignan Frequency 116250 KHZ
Airport Weather Information & NOTAM
ADDS - METARS form results

(0848 UTC 18 July 2018)
 
METAR text: LFMP 180830Z AUTO 12007KT 070V160 CAVOK 29/14 Q1016 NOSIG
Conditions at: LFMP (PERPIGNAN/RIVESA, FR) observed 0830 UTC 18 July 2018
Temperature: 29.0°C (84°F)
Dewpoint: 14.0°C (57°F) [RH = 40%]
Pressure (altimeter): 30.00 inches Hg (1016.0 mb)
Winds: from the ESE (120 degrees) at 8 MPH (7 knots; 3.6 m/s)
Visibility: 6 or more miles (10+ km)
Ceiling: ceiling and visibility are OK
Clouds: unknown
Weather: no significant weather observed at this time

METAR text: LFMP 180800Z AUTO 06004KT 360V160 CAVOK 28/14 Q1016 NOSIG
Conditions at: LFMP (PERPIGNAN/RIVESA, FR) observed 0800 UTC 18 July 2018
Temperature: 28.0°C (82°F)
Dewpoint: 14.0°C (57°F) [RH = 42%]
Pressure (altimeter): 30.00 inches Hg (1016.0 mb)
Winds: from the ENE (60 degrees) at 5 MPH (4 knots; 2.1 m/s)
Visibility: 6 or more miles (10+ km)
Ceiling: ceiling and visibility are OK
Clouds: unknown
Weather: no significant weather observed at this time